sensor_id;sensor_type;location;lat;lon;timestamp;temperature;humidity
13123;DHT22;6627;50.920;12.050;2024-02-21T00:01:34;7.90;99.90
13123;DHT22;6627;50.920;12.050;2024-02-21T00:04:02;7.90;99.90
13123;DHT22;6627;50.920;12.050;2024-02-21T00:08:58;7.80;99.90
13123;DHT22;6627;50.920;12.050;2024-02-21T00:11:25;7.80;99.90
13123;DHT22;6627;50.920;12.050;2024-02-21T00:13:54;7.90;99.90
13123;DHT22;6627;50.920;12.050;2024-02-21T00:16:24;7.80;99.90
13123;DHT22;6627;50.920;12.050;2024-02-21T00:18:56;7.90;99.90
13123;DHT22;6627;50.920;12.050;2024-02-21T00:21:25;7.90;99.90
13123;DHT22;6627;50.920;12.050;2024-02-21T00:23:52;7.90;99.90
13123;DHT22;6627;50.920;12.050;2024-02-21T00:26:20;7.90;99.90
13123;DHT22;6627;50.920;12.050;2024-02-21T00:28:47;7.90;99.90
13123;DHT22;6627;50.920;12.050;2024-02-21T00:31:15;7.90;99.90
13123;DHT22;6627;50.920;12.050;2024-02-21T00:33:43;7.80;99.90
13123;DHT22;6627;50.920;12.050;2024-02-21T00:36:15;7.80;99.90
13123;DHT22;6627;50.920;12.050;2024-02-21T00:38:45;7.90;99.90
13123;DHT22;6627;50.920;12.050;2024-02-21T00:41:28;7.90;99.90
13123;DHT22;6627;50.920;12.050;2024-02-21T00:43:58;8.00;99.90
13123;DHT22;6627;50.920;12.050;2024-02-21T00:46:25;8.00;99.90
13123;DHT22;6627;50.920;12.050;2024-02-21T00:48:52;7.90;99.90
13123;DHT22;6627;50.920;12.050;2024-02-21T00:51:21;8.00;99.90
13123;DHT22;6627;50.920;12.050;2024-02-21T00:54:04;8.00;99.90
13123;DHT22;6627;50.920;12.050;2024-02-21T00:56:51;8.00;99.90
13123;DHT22;6627;50.920;12.050;2024-02-21T00:59:20;8.00;99.90
13123;DHT22;6627;50.920;12.050;2024-02-21T01:01:49;8.00;99.90
13123;DHT22;6627;50.920;12.050;2024-02-21T01:04:19;8.00;99.90
13123;DHT22;6627;50.920;12.050;2024-02-21T01:06:49;8.00;99.90
13123;DHT22;6627;50.920;12.050;2024-02-21T01:11:46;8.00;99.90
13123;DHT22;6627;50.920;12.050;2024-02-21T01:14:13;8.10;99.90
13123;DHT22;6627;50.920;12.050;2024-02-21T01:16:41;8.10;99.90
13123;DHT22;6627;50.920;12.050;2024-02-21T01:19:09;8.10;99.90
13123;DHT22;6627;50.920;12.050;2024-02-21T01:21:39;8.10;99.90
13123;DHT22;6627;50.920;12.050;2024-02-21T01:24:26;8.10;99.90
13123;DHT22;6627;50.920;12.050;2024-02-21T01:26:56;8.10;99.90
13123;DHT22;6627;50.920;12.050;2024-02-21T01:29:24;8.10;99.90
13123;DHT22;6627;50.920;12.050;2024-02-21T01:31:51;8.10;99.90
13123;DHT22;6627;50.920;12.050;2024-02-21T01:34:34;8.10;99.90
13123;DHT22;6627;50.920;12.050;2024-02-21T01:37:03;8.00;99.90
13123;DHT22;6627;50.920;12.050;2024-02-21T01:39:34;8.00;99.90
13123;DHT22;6627;50.920;12.050;2024-02-21T01:42:03;8.00;99.90
13123;DHT22;6627;50.920;12.050;2024-02-21T01:44:33;8.00;99.90
13123;DHT22;6627;50.920;12.050;2024-02-21T01:47:03;8.00;99.90
13123;DHT22;6627;50.920;12.050;2024-02-21T01:49:31;8.00;99.90
13123;DHT22;6627;50.920;12.050;2024-02-21T01:51:58;8.00;99.90
13123;DHT22;6627;50.920;12.050;2024-02-21T01:54:26;8.00;99.90
13123;DHT22;6627;50.920;12.050;2024-02-21T01:56:56;8.00;99.90
13123;DHT22;6627;50.920;12.050;2024-02-21T01:59:24;8.00;99.90
13123;DHT22;6627;50.920;12.050;2024-02-21T02:01:52;8.00;99.90
13123;DHT22;6627;50.920;12.050;2024-02-21T02:04:20;8.00;99.90
13123;DHT22;6627;50.920;12.050;2024-02-21T02:06:50;8.00;99.90
13123;DHT22;6627;50.920;12.050;2024-02-21T02:09:21;8.00;99.90
13123;DHT22;6627;50.920;12.050;2024-02-21T02:14:18;8.00;99.90
13123;DHT22;6627;50.920;12.050;2024-02-21T02:16:46;8.00;99.90
13123;DHT22;6627;50.920;12.050;2024-02-21T02:19:14;8.00;99.90
13123;DHT22;6627;50.920;12.050;2024-02-21T02:21:46;8.00;99.90
13123;DHT22;6627;50.920;12.050;2024-02-21T02:24:26;7.90;99.90
13123;DHT22;6627;50.920;12.050;2024-02-21T02:26:54;7.90;99.90
13123;DHT22;6627;50.920;12.050;2024-02-21T02:29:23;7.80;99.90
13123;DHT22;6627;50.920;12.050;2024-02-21T02:31:52;7.80;99.90
13123;DHT22;6627;50.920;12.050;2024-02-21T02:34:22;7.80;99.90
13123;DHT22;6627;50.920;12.050;2024-02-21T02:36:51;7.80;99.90
13123;DHT22;6627;50.920;12.050;2024-02-21T02:41:47;7.70;99.90
13123;DHT22;6627;50.920;12.050;2024-02-21T02:44:15;7.70;99.90
13123;DHT22;6627;50.920;12.050;2024-02-21T02:46:52;7.70;99.90
13123;DHT22;6627;50.920;12.050;2024-02-21T02:49:21;7.70;99.90
13123;DHT22;6627;50.920;12.050;2024-02-21T02:51:51;7.60;99.90
13123;DHT22;6627;50.920;12.050;2024-02-21T02:54:19;7.50;99.90
13123;DHT22;6627;50.920;12.050;2024-02-21T02:56:49;7.40;99.90
13123;DHT22;6627;50.920;12.050;2024-02-21T02:59:17;7.40;99.90
13123;DHT22;6627;50.920;12.050;2024-02-21T03:01:44;7.40;99.90
13123;DHT22;6627;50.920;12.050;2024-02-21T03:04:11;7.40;99.90
13123;DHT22;6627;50.920;12.050;2024-02-21T03:06:55;7.40;99.90
13123;DHT22;6627;50.920;12.050;2024-02-21T03:09:25;7.20;99.90
13123;DHT22;6627;50.920;12.050;2024-02-21T03:11:56;7.20;99.90
13123;DHT22;6627;50.920;12.050;2024-02-21T03:14:30;7.20;99.90
13123;DHT22;6627;50.920;12.050;2024-02-21T03:16:59;7.10;99.90
13123;DHT22;6627;50.920;12.050;2024-02-21T03:19:28;7.10;99.90
13123;DHT22;6627;50.920;12.050;2024-02-21T03:21:57;7.00;99.90
13123;DHT22;6627;50.920;12.050;2024-02-21T03:24:26;7.10;99.90
13123;DHT22;6627;50.920;12.050;2024-02-21T03:26:55;7.10;99.90
13123;DHT22;6627;50.920;12.050;2024-02-21T03:29:23;7.00;99.90
13123;DHT22;6627;50.920;12.050;2024-02-21T03:31:53;7.00;99.90
13123;DHT22;6627;50.920;12.050;2024-02-21T03:34:21;6.90;99.90
13123;DHT22;6627;50.920;12.050;2024-02-21T03:36:50;6.80;99.90
13123;DHT22;6627;50.920;12.050;2024-02-21T03:39:19;6.70;99.90
13123;DHT22;6627;50.920;12.050;2024-02-21T03:41:49;6.70;99.90
13123;DHT22;6627;50.920;12.050;2024-02-21T03:44:19;6.80;99.90
13123;DHT22;6627;50.920;12.050;2024-02-21T03:46:47;6.90;99.90
13123;DHT22;6627;50.920;12.050;2024-02-21T03:49:14;7.10;99.90
13123;DHT22;6627;50.920;12.050;2024-02-21T03:54:29;7.20;99.90
13123;DHT22;6627;50.920;12.050;2024-02-21T03:56:58;7.20;99.90
13123;DHT22;6627;50.920;12.050;2024-02-21T03:59:29;7.20;99.90
13123;DHT22;6627;50.920;12.050;2024-02-21T04:01:58;7.10;99.90
13123;DHT22;6627;50.920;12.050;2024-02-21T04:04:28;7.10;99.90
13123;DHT22;6627;50.920;12.050;2024-02-21T04:06:55;7.10;99.90
13123;DHT22;6627;50.920;12.050;2024-02-21T04:14:25;7.20;99.90
13123;DHT22;6627;50.920;12.050;2024-02-21T04:16:55;7.20;99.90
13123;DHT22;6627;50.920;12.050;2024-02-21T04:19:25;7.20;99.90
13123;DHT22;6627;50.920;12.050;2024-02-21T04:21:54;7.20;99.90
13123;DHT22;6627;50.920;12.050;2024-02-21T04:24:22;7.20;99.90
13123;DHT22;6627;50.920;12.050;2024-02-21T04:26:49;7.20;99.90
13123;DHT22;6627;50.920;12.050;2024-02-21T04:29:16;7.10;99.90
13123;DHT22;6627;50.920;12.050;2024-02-21T04:32:03;7.10;99.90
13123;DHT22;6627;50.920;12.050;2024-02-21T04:34:30;7.20;99.90
13123;DHT22;6627;50.920;12.050;2024-02-21T04:37:00;7.20;99.90
13123;DHT22;6627;50.920;12.050;2024-02-21T04:39:29;7.20;99.90
13123;DHT22;6627;50.920;12.050;2024-02-21T04:41:57;7.10;99.90
13123;DHT22;6627;50.920;12.050;2024-02-21T04:44:25;7.10;99.90
13123;DHT22;6627;50.920;12.050;2024-02-21T04:47:10;7.00;99.90
13123;DHT22;6627;50.920;12.050;2024-02-21T04:49:39;7.10;99.90
13123;DHT22;6627;50.920;12.050;2024-02-21T04:52:07;6.90;99.90
13123;DHT22;6627;50.920;12.050;2024-02-21T04:54:35;6.80;99.90
13123;DHT22;6627;50.920;12.050;2024-02-21T04:57:19;6.70;99.90
13123;DHT22;6627;50.920;12.050;2024-02-21T04:59:48;6.60;99.90
13123;DHT22;6627;50.920;12.050;2024-02-21T05:02:18;6.60;99.90
13123;DHT22;6627;50.920;12.050;2024-02-21T05:04:51;6.70;99.90
13123;DHT22;6627;50.920;12.050;2024-02-21T05:07:21;6.70;99.90
13123;DHT22;6627;50.920;12.050;2024-02-21T05:09:48;6.80;99.90
13123;DHT22;6627;50.920;12.050;2024-02-21T05:12:15;6.80;99.90
13123;DHT22;6627;50.920;12.050;2024-02-21T05:14:43;6.80;99.90
13123;DHT22;6627;50.920;12.050;2024-02-21T05:17:12;6.70;99.90
13123;DHT22;6627;50.920;12.050;2024-02-21T05:19:41;6.70;99.90
13123;DHT22;6627;50.920;12.050;2024-02-21T05:24:39;6.80;99.90
13123;DHT22;6627;50.920;12.050;2024-02-21T05:27:09;6.80;99.90
13123;DHT22;6627;50.920;12.050;2024-02-21T05:29:39;6.80;99.90
13123;DHT22;6627;50.920;12.050;2024-02-21T05:32:07;6.70;99.90
13123;DHT22;6627;50.920;12.050;2024-02-21T05:34:34;6.60;99.90
13123;DHT22;6627;50.920;12.050;2024-02-21T05:37:03;6.50;99.90
13123;DHT22;6627;50.920;12.050;2024-02-21T05:39:31;6.60;99.90
13123;DHT22;6627;50.920;12.050;2024-02-21T05:42:01;6.60;99.90
13123;DHT22;6627;50.920;12.050;2024-02-21T05:44:31;6.70;99.90
13123;DHT22;6627;50.920;12.050;2024-02-21T05:47:01;6.60;99.90
13123;DHT22;6627;50.920;12.050;2024-02-21T05:49:30;6.70;99.90
13123;DHT22;6627;50.920;12.050;2024-02-21T05:51:58;6.70;99.90
13123;DHT22;6627;50.920;12.050;2024-02-21T05:54:26;6.70;99.90
13123;DHT22;6627;50.920;12.050;2024-02-21T05:56:53;6.70;99.90
13123;DHT22;6627;50.920;12.050;2024-02-21T05:59:21;6.80;99.90
13123;DHT22;6627;50.920;12.050;2024-02-21T06:01:55;6.80;99.90
13123;DHT22;6627;50.920;12.050;2024-02-21T06:04:26;6.80;99.90
13123;DHT22;6627;50.920;12.050;2024-02-21T06:06:56;6.90;99.90
13123;DHT22;6627;50.920;12.050;2024-02-21T06:09:27;6.90;99.90
13123;DHT22;6627;50.920;12.050;2024-02-21T06:11:57;6.90;99.90
13123;DHT22;6627;50.920;12.050;2024-02-21T06:16:52;7.00;99.90
13123;DHT22;6627;50.920;12.050;2024-02-21T06:19:19;7.00;99.90
13123;DHT22;6627;50.920;12.050;2024-02-21T06:21:46;6.90;99.90
13123;DHT22;6627;50.920;12.050;2024-02-21T06:24:34;6.80;99.90
13123;DHT22;6627;50.920;12.050;2024-02-21T06:27:03;6.80;99.90
13123;DHT22;6627;50.920;12.050;2024-02-21T06:29:34;7.00;99.90
13123;DHT22;6627;50.920;12.050;2024-02-21T06:32:04;7.00;99.90
13123;DHT22;6627;50.920;12.050;2024-02-21T06:34:34;7.10;99.90
13123;DHT22;6627;50.920;12.050;2024-02-21T06:37:18;7.10;99.90
13123;DHT22;6627;50.920;12.050;2024-02-21T06:40:02;7.10;99.90
13123;DHT22;6627;50.920;12.050;2024-02-21T06:42:31;7.10;99.90
13123;DHT22;6627;50.920;12.050;2024-02-21T06:44:58;7.00;99.90
13123;DHT22;6627;50.920;12.050;2024-02-21T06:47:28;7.10;99.90
13123;DHT22;6627;50.920;12.050;2024-02-21T06:49:58;7.10;99.90
13123;DHT22;6627;50.920;12.050;2024-02-21T06:52:26;7.10;99.90
13123;DHT22;6627;50.920;12.050;2024-02-21T06:54:54;7.10;99.90
13123;DHT22;6627;50.920;12.050;2024-02-21T06:57:23;7.00;99.90
13123;DHT22;6627;50.920;12.050;2024-02-21T06:59:50;7.10;99.90
13123;DHT22;6627;50.920;12.050;2024-02-21T07:02:20;7.20;99.90
13123;DHT22;6627;50.920;12.050;2024-02-21T07:04:47;7.30;99.90
13123;DHT22;6627;50.920;12.050;2024-02-21T07:09:45;7.40;99.90
13123;DHT22;6627;50.920;12.050;2024-02-21T07:12:17;7.50;99.90
13123;DHT22;6627;50.920;12.050;2024-02-21T07:14:46;7.60;99.90
13123;DHT22;6627;50.920;12.050;2024-02-21T07:17:15;7.60;99.90
13123;DHT22;6627;50.920;12.050;2024-02-21T07:19:43;7.70;99.90
13123;DHT22;6627;50.920;12.050;2024-02-21T07:22:10;7.70;99.90
13123;DHT22;6627;50.920;12.050;2024-02-21T07:24:37;7.80;99.90
13123;DHT22;6627;50.920;12.050;2024-02-21T07:27:15;7.80;99.90
13123;DHT22;6627;50.920;12.050;2024-02-21T07:29:43;7.80;99.90
13123;DHT22;6627;50.920;12.050;2024-02-21T07:32:17;7.80;99.90
13123;DHT22;6627;50.920;12.050;2024-02-21T07:34:47;7.80;99.90
13123;DHT22;6627;50.920;12.050;2024-02-21T07:37:17;7.90;99.90
13123;DHT22;6627;50.920;12.050;2024-02-21T07:39:45;7.90;99.90
13123;DHT22;6627;50.920;12.050;2024-02-21T07:42:13;7.90;99.90
13123;DHT22;6627;50.920;12.050;2024-02-21T07:44:41;7.90;99.90
13123;DHT22;6627;50.920;12.050;2024-02-21T07:47:08;8.00;99.90
13123;DHT22;6627;50.920;12.050;2024-02-21T07:49:44;8.00;99.90
13123;DHT22;6627;50.920;12.050;2024-02-21T07:52:20;8.00;99.90
13123;DHT22;6627;50.920;12.050;2024-02-21T07:54:47;8.10;99.90
13123;DHT22;6627;50.920;12.050;2024-02-21T07:57:15;8.20;99.90
13123;DHT22;6627;50.920;12.050;2024-02-21T07:59:45;8.20;99.90
13123;DHT22;6627;50.920;12.050;2024-02-21T08:02:15;8.20;99.90
13123;DHT22;6627;50.920;12.050;2024-02-21T08:04:45;8.20;99.90
13123;DHT22;6627;50.920;12.050;2024-02-21T08:07:13;8.20;99.90
13123;DHT22;6627;50.920;12.050;2024-02-21T08:09:42;8.20;99.90
13123;DHT22;6627;50.920;12.050;2024-02-21T08:12:09;8.20;99.90
13123;DHT22;6627;50.920;12.050;2024-02-21T08:14:39;8.20;99.90
13123;DHT22;6627;50.920;12.050;2024-02-21T08:17:09;8.30;99.90
13123;DHT22;6627;50.920;12.050;2024-02-21T08:19:39;8.30;99.90
13123;DHT22;6627;50.920;12.050;2024-02-21T08:22:10;8.30;99.90
13123;DHT22;6627;50.920;12.050;2024-02-21T08:24:38;8.30;99.90
13123;DHT22;6627;50.920;12.050;2024-02-21T08:27:06;8.20;99.90
13123;DHT22;6627;50.920;12.050;2024-02-21T08:29:33;8.20;99.90
13123;DHT22;6627;50.920;12.050;2024-02-21T08:34:44;8.20;99.90
13123;DHT22;6627;50.920;12.050;2024-02-21T08:37:16;8.20;99.90
13123;DHT22;6627;50.920;12.050;2024-02-21T08:39:47;8.10;99.90
13123;DHT22;6627;50.920;12.050;2024-02-21T08:42:17;8.20;99.90
13123;DHT22;6627;50.920;12.050;2024-02-21T08:44:46;8.10;99.90
13123;DHT22;6627;50.920;12.050;2024-02-21T08:47:13;8.20;99.90
13123;DHT22;6627;50.920;12.050;2024-02-21T08:49:40;8.20;99.90
13123;DHT22;6627;50.920;12.050;2024-02-21T08:52:08;8.20;99.90
13123;DHT22;6627;50.920;12.050;2024-02-21T08:54:36;8.20;99.90
13123;DHT22;6627;50.920;12.050;2024-02-21T08:57:04;8.20;99.90
13123;DHT22;6627;50.920;12.050;2024-02-21T08:59:34;8.10;99.90
13123;DHT22;6627;50.920;12.050;2024-02-21T09:02:04;8.10;99.90
13123;DHT22;6627;50.920;12.050;2024-02-21T09:04:35;8.20;99.90
13123;DHT22;6627;50.920;12.050;2024-02-21T09:07:05;8.20;99.90
13123;DHT22;6627;50.920;12.050;2024-02-21T09:09:33;8.20;99.90
13123;DHT22;6627;50.920;12.050;2024-02-21T09:12:02;8.20;99.90
13123;DHT22;6627;50.920;12.050;2024-02-21T09:14:48;8.30;99.90
13123;DHT22;6627;50.920;12.050;2024-02-21T09:17:16;8.30;99.90
13123;DHT22;6627;50.920;12.050;2024-02-21T09:19:45;8.30;99.90
13123;DHT22;6627;50.920;12.050;2024-02-21T09:22:12;8.40;99.90
13123;DHT22;6627;50.920;12.050;2024-02-21T09:24:41;8.40;99.90
13123;DHT22;6627;50.920;12.050;2024-02-21T09:27:12;8.40;99.90
13123;DHT22;6627;50.920;12.050;2024-02-21T09:29:42;8.40;99.90
13123;DHT22;6627;50.920;12.050;2024-02-21T09:32:10;8.40;99.90
13123;DHT22;6627;50.920;12.050;2024-02-21T09:34:37;8.50;99.90
13123;DHT22;6627;50.920;12.050;2024-02-21T09:39:34;8.60;99.90
13123;DHT22;6627;50.920;12.050;2024-02-21T09:42:06;8.60;99.90
13123;DHT22;6627;50.920;12.050;2024-02-21T09:44:38;8.70;99.90
13123;DHT22;6627;50.920;12.050;2024-02-21T09:47:10;8.80;99.90
13123;DHT22;6627;50.920;12.050;2024-02-21T09:49:47;8.90;99.90
13123;DHT22;6627;50.920;12.050;2024-02-21T09:52:16;9.00;99.90
13123;DHT22;6627;50.920;12.050;2024-02-21T09:54:44;9.00;99.90
13123;DHT22;6627;50.920;12.050;2024-02-21T09:57:11;9.00;99.90
13123;DHT22;6627;50.920;12.050;2024-02-21T09:59:41;9.00;99.90
13123;DHT22;6627;50.920;12.050;2024-02-21T10:02:08;9.10;99.90
13123;DHT22;6627;50.920;12.050;2024-02-21T10:04:40;9.10;99.90
13123;DHT22;6627;50.920;12.050;2024-02-21T10:07:10;9.20;99.90
13123;DHT22;6627;50.920;12.050;2024-02-21T10:09:41;9.20;99.90
13123;DHT22;6627;50.920;12.050;2024-02-21T10:12:14;9.20;99.90
13123;DHT22;6627;50.920;12.050;2024-02-21T10:14:46;9.30;99.90
13123;DHT22;6627;50.920;12.050;2024-02-21T10:17:16;9.30;99.90
13123;DHT22;6627;50.920;12.050;2024-02-21T10:19:46;9.30;99.90
13123;DHT22;6627;50.920;12.050;2024-02-21T10:22:15;9.30;99.90
13123;DHT22;6627;50.920;12.050;2024-02-21T10:25:07;9.30;99.90
13123;DHT22;6627;50.920;12.050;2024-02-21T10:27:37;9.40;99.90
13123;DHT22;6627;50.920;12.050;2024-02-21T10:30:14;9.40;99.90
13123;DHT22;6627;50.920;12.050;2024-02-21T10:32:50;9.50;99.90
13123;DHT22;6627;50.920;12.050;2024-02-21T10:35:26;9.50;99.90
13123;DHT22;6627;50.920;12.050;2024-02-21T10:37:55;9.60;99.90
13123;DHT22;6627;50.920;12.050;2024-02-21T10:40:24;9.70;99.90
13123;DHT22;6627;50.920;12.050;2024-02-21T10:42:56;9.80;99.90
13123;DHT22;6627;50.920;12.050;2024-02-21T10:45:29;10.10;99.90
13123;DHT22;6627;50.920;12.050;2024-02-21T10:48:07;10.20;99.90
13123;DHT22;6627;50.920;12.050;2024-02-21T10:50:52;10.40;99.90
13123;DHT22;6627;50.920;12.050;2024-02-21T10:53:33;10.60;99.90
13123;DHT22;6627;50.920;12.050;2024-02-21T10:56:11;11.00;99.90
13123;DHT22;6627;50.920;12.050;2024-02-21T10:58:49;11.00;99.90
13123;DHT22;6627;50.920;12.050;2024-02-21T11:01:33;11.20;99.90
13123;DHT22;6627;50.920;12.050;2024-02-21T11:04:02;11.30;99.90
13123;DHT22;6627;50.920;12.050;2024-02-21T11:06:32;11.20;99.90
13123;DHT22;6627;50.920;12.050;2024-02-21T11:09:06;11.20;99.90
13123;DHT22;6627;50.920;12.050;2024-02-21T11:11:34;11.10;99.90
13123;DHT22;6627;50.920;12.050;2024-02-21T11:14:07;11.30;99.90
13123;DHT22;6627;50.920;12.050;2024-02-21T11:16:40;11.40;99.90
13123;DHT22;6627;50.920;12.050;2024-02-21T11:19:19;11.50;99.90
13123;DHT22;6627;50.920;12.050;2024-02-21T11:21:49;11.80;99.90
13123;DHT22;6627;50.920;12.050;2024-02-21T11:24:26;11.80;99.90
13123;DHT22;6627;50.920;12.050;2024-02-21T11:26:55;12.10;99.90
13123;DHT22;6627;50.920;12.050;2024-02-21T11:29:26;12.10;99.90
13123;DHT22;6627;50.920;12.050;2024-02-21T11:31:58;12.00;99.90
13123;DHT22;6627;50.920;12.050;2024-02-21T11:34:30;11.90;99.90
13123;DHT22;6627;50.920;12.050;2024-02-21T11:37:00;11.70;99.90
13123;DHT22;6627;50.920;12.050;2024-02-21T11:39:30;11.80;99.90
13123;DHT22;6627;50.920;12.050;2024-02-21T11:42:02;11.80;99.90
13123;DHT22;6627;50.920;12.050;2024-02-21T11:44:30;12.00;99.90
13123;DHT22;6627;50.920;12.050;2024-02-21T11:46:59;11.90;99.90
13123;DHT22;6627;50.920;12.050;2024-02-21T11:49:44;12.00;99.90
13123;DHT22;6627;50.920;12.050;2024-02-21T11:52:32;11.80;99.90
13123;DHT22;6627;50.920;12.050;2024-02-21T11:55:02;11.70;99.90
13123;DHT22;6627;50.920;12.050;2024-02-21T11:57:31;11.80;99.90
13123;DHT22;6627;50.920;12.050;2024-02-21T12:00:11;12.00;99.90
13123;DHT22;6627;50.920;12.050;2024-02-21T12:05:13;11.80;99.90
13123;DHT22;6627;50.920;12.050;2024-02-21T12:07:41;11.80;99.90
13123;DHT22;6627;50.920;12.050;2024-02-21T12:10:10;11.80;99.90
13123;DHT22;6627;50.920;12.050;2024-02-21T12:12:37;12.00;99.90
13123;DHT22;6627;50.920;12.050;2024-02-21T12:15:14;12.10;99.90
13123;DHT22;6627;50.920;12.050;2024-02-21T12:17:42;12.10;99.90
13123;DHT22;6627;50.920;12.050;2024-02-21T12:20:12;12.00;99.90
13123;DHT22;6627;50.920;12.050;2024-02-21T12:22:42;12.00;99.90
13123;DHT22;6627;50.920;12.050;2024-02-21T12:25:16;12.00;99.90
13123;DHT22;6627;50.920;12.050;2024-02-21T12:27:45;12.00;99.90
13123;DHT22;6627;50.920;12.050;2024-02-21T12:30:12;12.00;99.90
13123;DHT22;6627;50.920;12.050;2024-02-21T12:32:39;12.20;99.90
13123;DHT22;6627;50.920;12.050;2024-02-21T12:35:07;12.20;99.90
13123;DHT22;6627;50.920;12.050;2024-02-21T12:37:39;12.20;99.90
13123;DHT22;6627;50.920;12.050;2024-02-21T12:40:09;12.20;99.90
13123;DHT22;6627;50.920;12.050;2024-02-21T12:42:39;12.20;99.90
13123;DHT22;6627;50.920;12.050;2024-02-21T12:45:08;12.20;99.90
13123;DHT22;6627;50.920;12.050;2024-02-21T12:47:51;12.20;99.90
13123;DHT22;6627;50.920;12.050;2024-02-21T12:50:18;12.20;99.90
13123;DHT22;6627;50.920;12.050;2024-02-21T12:52:47;12.30;99.90
13123;DHT22;6627;50.920;12.050;2024-02-21T12:55:15;12.20;99.90
13123;DHT22;6627;50.920;12.050;2024-02-21T12:58:03;12.10;99.90
13123;DHT22;6627;50.920;12.050;2024-02-21T13:00:34;12.20;99.90
13123;DHT22;6627;50.920;12.050;2024-02-21T13:03:01;12.10;99.90
13123;DHT22;6627;50.920;12.050;2024-02-21T13:05:32;12.00;99.90
13123;DHT22;6627;50.920;12.050;2024-02-21T13:08:04;12.00;99.90
13123;DHT22;6627;50.920;12.050;2024-02-21T13:10:33;12.20;99.90
13123;DHT22;6627;50.920;12.050;2024-02-21T13:13:01;12.30;99.90
13123;DHT22;6627;50.920;12.050;2024-02-21T13:15:28;12.30;99.90
13123;DHT22;6627;50.920;12.050;2024-02-21T13:17:56;12.20;99.90
13123;DHT22;6627;50.920;12.050;2024-02-21T13:20:26;12.20;99.90
13123;DHT22;6627;50.920;12.050;2024-02-21T13:22:57;12.20;99.90
13123;DHT22;6627;50.920;12.050;2024-02-21T13:25:26;12.30;99.90
13123;DHT22;6627;50.920;12.050;2024-02-21T13:27:54;12.40;99.90
13123;DHT22;6627;50.920;12.050;2024-02-21T13:30:21;12.40;99.90
13123;DHT22;6627;50.920;12.050;2024-02-21T13:32:50;12.50;99.90
13123;DHT22;6627;50.920;12.050;2024-02-21T13:35:17;12.60;99.90
13123;DHT22;6627;50.920;12.050;2024-02-21T13:37:44;12.60;99.90
13123;DHT22;6627;50.920;12.050;2024-02-21T13:40:12;12.50;99.90
13123;DHT22;6627;50.920;12.050;2024-02-21T13:42:43;12.40;99.90
13123;DHT22;6627;50.920;12.050;2024-02-21T13:45:12;12.40;99.90
13123;DHT22;6627;50.920;12.050;2024-02-21T13:47:41;12.40;99.90
13123;DHT22;6627;50.920;12.050;2024-02-21T13:50:11;12.50;99.90
13123;DHT22;6627;50.920;12.050;2024-02-21T13:52:40;12.50;99.90
13123;DHT22;6627;50.920;12.050;2024-02-21T13:55:08;12.50;99.90
13123;DHT22;6627;50.920;12.050;2024-02-21T13:57:36;12.50;99.90
13123;DHT22;6627;50.920;12.050;2024-02-21T14:00:06;12.60;99.90
13123;DHT22;6627;50.920;12.050;2024-02-21T14:02:36;12.50;99.90
13123;DHT22;6627;50.920;12.050;2024-02-21T14:05:07;12.50;99.90
13123;DHT22;6627;50.920;12.050;2024-02-21T14:07:35;12.40;99.90
13123;DHT22;6627;50.920;12.050;2024-02-21T14:10:02;12.40;99.90
13123;DHT22;6627;50.920;12.050;2024-02-21T14:12:32;12.40;99.90
13123;DHT22;6627;50.920;12.050;2024-02-21T14:15:00;12.40;99.90
13123;DHT22;6627;50.920;12.050;2024-02-21T14:17:28;12.30;99.90
13123;DHT22;6627;50.920;12.050;2024-02-21T14:19:56;12.20;99.90
13123;DHT22;6627;50.920;12.050;2024-02-21T14:22:23;12.10;99.90
13123;DHT22;6627;50.920;12.050;2024-02-21T14:25:10;12.10;99.90
13123;DHT22;6627;50.920;12.050;2024-02-21T14:27:40;12.10;99.90
13123;DHT22;6627;50.920;12.050;2024-02-21T14:30:12;12.00;99.90
13123;DHT22;6627;50.920;12.050;2024-02-21T14:32:43;12.00;99.90
13123;DHT22;6627;50.920;12.050;2024-02-21T14:35:13;12.00;99.90
13123;DHT22;6627;50.920;12.050;2024-02-21T14:37:41;12.10;99.90
13123;DHT22;6627;50.920;12.050;2024-02-21T14:40:09;12.20;99.90
13123;DHT22;6627;50.920;12.050;2024-02-21T14:42:37;12.10;99.90
13123;DHT22;6627;50.920;12.050;2024-02-21T14:45:05;12.10;99.90
13123;DHT22;6627;50.920;12.050;2024-02-21T14:47:33;12.10;99.90
13123;DHT22;6627;50.920;12.050;2024-02-21T14:50:05;12.10;99.90
13123;DHT22;6627;50.920;12.050;2024-02-21T14:52:36;12.00;99.90
13123;DHT22;6627;50.920;12.050;2024-02-21T14:55:05;12.00;99.90
13123;DHT22;6627;50.920;12.050;2024-02-21T14:57:35;11.90;99.90
13123;DHT22;6627;50.920;12.050;2024-02-21T15:00:06;11.70;99.90
13123;DHT22;6627;50.920;12.050;2024-02-21T15:02:37;11.60;99.90
13123;DHT22;6627;50.920;12.050;2024-02-21T15:05:06;11.60;99.90
13123;DHT22;6627;50.920;12.050;2024-02-21T15:10:04;11.50;99.90
13123;DHT22;6627;50.920;12.050;2024-02-21T15:12:34;11.50;99.90
13123;DHT22;6627;50.920;12.050;2024-02-21T15:15:04;11.40;99.90
13123;DHT22;6627;50.920;12.050;2024-02-21T15:17:37;11.30;99.90
13123;DHT22;6627;50.920;12.050;2024-02-21T15:20:06;11.30;99.90
13123;DHT22;6627;50.920;12.050;2024-02-21T15:22:34;11.40;99.90
13123;DHT22;6627;50.920;12.050;2024-02-21T15:25:03;11.30;99.90
13123;DHT22;6627;50.920;12.050;2024-02-21T15:27:31;11.30;99.90
13123;DHT22;6627;50.920;12.050;2024-02-21T15:29:59;11.20;99.90
13123;DHT22;6627;50.920;12.050;2024-02-21T15:32:29;11.20;99.90
13123;DHT22;6627;50.920;12.050;2024-02-21T15:34:59;11.20;99.90
13123;DHT22;6627;50.920;12.050;2024-02-21T15:37:30;11.10;99.90
13123;DHT22;6627;50.920;12.050;2024-02-21T15:40:00;11.10;99.90
13123;DHT22;6627;50.920;12.050;2024-02-21T15:42:28;11.10;99.90
13123;DHT22;6627;50.920;12.050;2024-02-21T15:44:57;11.00;99.90
13123;DHT22;6627;50.920;12.050;2024-02-21T15:47:26;11.00;99.90
13123;DHT22;6627;50.920;12.050;2024-02-21T15:49:53;10.90;99.90
13123;DHT22;6627;50.920;12.050;2024-02-21T15:52:42;10.90;99.90
13123;DHT22;6627;50.920;12.050;2024-02-21T15:55:09;10.80;99.90
13123;DHT22;6627;50.920;12.050;2024-02-21T15:57:39;10.80;99.90
13123;DHT22;6627;50.920;12.050;2024-02-21T16:00:10;10.80;99.90
13123;DHT22;6627;50.920;12.050;2024-02-21T16:02:39;10.70;99.90
13123;DHT22;6627;50.920;12.050;2024-02-21T16:05:08;10.70;99.90
13123;DHT22;6627;50.920;12.050;2024-02-21T16:07:36;10.70;99.90
13123;DHT22;6627;50.920;12.050;2024-02-21T16:10:06;10.70;99.90
13123;DHT22;6627;50.920;12.050;2024-02-21T16:12:34;10.60;99.90
13123;DHT22;6627;50.920;12.050;2024-02-21T16:15:05;10.60;99.90
13123;DHT22;6627;50.920;12.050;2024-02-21T16:17:36;10.60;99.90
13123;DHT22;6627;50.920;12.050;2024-02-21T16:20:04;10.50;99.90
13123;DHT22;6627;50.920;12.050;2024-02-21T16:22:38;10.50;99.90
13123;DHT22;6627;50.920;12.050;2024-02-21T16:25:07;10.50;99.90
13123;DHT22;6627;50.920;12.050;2024-02-21T16:27:35;10.40;99.90
13123;DHT22;6627;50.920;12.050;2024-02-21T16:30:03;10.30;99.90
13123;DHT22;6627;50.920;12.050;2024-02-21T16:32:48;10.40;99.90
13123;DHT22;6627;50.920;12.050;2024-02-21T16:35:15;10.30;99.90